Terminal Aerodrome Forecast
Issued by NWS

Home | Current Version | Previous Version | Text Only | Print | Product List | Glossary On
Versions: 1 2 3 4 5 6 7 8 9 10 11 12
804
FTUS46 KSEW 240545
TAFOLM
TAF
KOLM 240545Z 2406/2506 19003KT P6SM -RA BKN020 OVC035
     FM241100 VRB03KT P6SM -RA BKN012 OVC020
     FM241700 03005KT P6SM VCSH BKN020 OVC040
     FM242200 31004KT P6SM VCSH SCT025 BKN045
     FM250400 21006KT P6SM BKN012 OVC020=

USA.gov is the U.S. government's official web portal to all federal, state and local government web resources and services.